Aviation Digital Data Service (ADDS)

Output produced by METARs form (1231 UTC 19 February 2020)
found at http://aviationweather.gov/metar/data/
 
KSNS 191153Z AUTO 17003KT 10SM CLR 04/02 A3008 RMK AO2 SLP196 T00390017 10100 20039 50004
KSNS 191120Z 1912/2012 14005KT P6SM SCT008 
     TEMPO 1912/1915 BKN008 
     FM191500 15007KT P6SM FEW010 SCT200 
     FM192100 30012KT P6SM SCT200 
     FM200300 29008KT P6SM SCT200 
     FM200700 11005KT P6SM FEW200
       
KMRY 191154Z 00000KT 10SM OVC007 07/02 A3007 RMK AO2 SLP196 T00720022 10117 20067 58002
KMRY 191120Z 1912/2012 11004KT P6SM BKN008 
     TEMPO 1913/1916 SCT008 
     FM191600 VRB03KT P6SM FEW010 SCT200 
     FM192000 29008KT P6SM SCT200 
     FM200300 24004KT P6SM FEW008 SCT200 
     FM200700 VRB03KT P6SM FEW008 SCT200
       
KSJC 191153Z AUTO 00000KT 10SM CLR 06/00 A3009 RMK AO2 SLP187 T00610000 10122 20050 53002
KSJC 191120Z 1912/2012 15005KT P6SM SCT200 
     FM191900 30010KT P6SM SCT200 
     FM200400 30008KT P6SM SCT200
       
KSFO 191156Z 20005KT 10SM FEW006 09/05 A3008 RMK AO2 SLP186 T00890050 10100 20083 51002
KSFO 191120Z 1912/2018 28006KT P6SM FEW007 FEW200 
     FM191500 06004KT P6SM FEW007 FEW200 
     FM192000 31009KT P6SM SCT200 
     FM200400 29005KT P6SM SCT200 
     FM200900 VRB03KT P6SM FEW010 SCT200 
     FM201500 06004KT P6SM FEW010 FEW200
       
KLVK 191153Z AUTO 06003KT 10SM CLR 03/M03 A3008 RMK AO2 SLP184 T00281028 10078 20017 53004
KLVK 191120Z 1912/2012 14003KT P6SM FEW200 
     FM191900 32009KT P6SM SCT200 
     FM200600 VRB03KT P6SM FEW200
       
KMCE 191153Z AUTO 00000KT 10SM CLR 03/M01 A3006 RMK AO2 SLP178 T00281006 10083 20017 50002
KMCE 191120Z 1912/2012 VRB04KT P6SM SCT200